Lamont, Kansas
Current Conditions -  °F | °C
As of 4:53 PM on Friday 28 Nov 2014 (Local Time) from KEMP Reporting Station
Clear Clear  
Wind Chill: 56°   Ceiling: Unl
Heat Index: 56°   Visibility: 10mi
Dew Point: 35°   Wind: 8mph
Humidity: 45%   Direction: 180°S
Pressure: 29.8"   Gusts: NA
Location:  38.11°N, 96.03°W
Report Text: KEMP 282253Z AUTO 18007KT 10SM CLR 13/02 A2980 RMK AO2 SLP097 T01330017
Loading
Personal Weather Stations






























Interactive Weather Map New forecast layout! Learn more

10-Day Weather Forecast

Advertisements
Track Severe Weather on mobile